createdAt,value
2023-03-26T00:00:10.591Z,9.746954
2023-03-26T00:01:11.623Z,9.749752
2023-03-26T03:45:42.107Z,9.762840
2023-03-26T03:46:42.130Z,9.762749
2023-03-26T03:47:42.112Z,9.762748
2023-03-26T03:48:42.039Z,9.762731
2023-03-26T03:49:42.045Z,9.762789
2023-03-26T03:50:42.062Z,9.762863
2023-03-26T03:51:42.025Z,9.762718
2023-03-26T03:52:42.004Z,9.762569
2023-03-26T03:53:42.019Z,9.762757
2023-03-26T03:54:41.996Z,9.762366
2023-03-26T03:55:41.981Z,9.762747
2023-03-26T03:56:41.981Z,9.762790
2023-03-26T03:57:41.942Z,9.762794
2023-03-26T03:58:41.943Z,9.762692
2023-03-26T03:59:47.368Z,9.762693
2023-03-26T04:00:41.933Z,9.762661
2023-03-26T04:01:41.910Z,9.762699
2023-03-26T04:02:41.987Z,9.762616
2023-03-26T04:03:42.020Z,9.762573
2023-03-26T04:04:41.934Z,9.762727
2023-03-26T04:05:41.864Z,9.762673
2023-03-26T04:06:41.871Z,9.762697
2023-03-26T04:07:41.878Z,9.762769
2023-03-26T04:08:41.835Z,9.762776
2023-03-26T04:09:41.849Z,9.762797
2023-03-26T04:10:41.818Z,9.762824
2023-03-26T04:11:41.797Z,9.762766
2023-03-26T04:12:41.790Z,9.762753
2023-03-26T04:13:41.789Z,9.762742
2023-03-26T04:14:41.784Z,9.762768
2023-03-26T04:15:41.824Z,9.762703
2023-03-26T04:16:41.747Z,9.762733
2023-03-26T04:17:42.963Z,9.762760
2023-03-26T04:18:41.735Z,9.762765
2023-03-26T04:19:41.741Z,9.762835
2023-03-26T04:20:41.743Z,9.762630
2023-03-26T04:21:41.695Z,9.762723
2023-03-26T04:22:41.714Z,9.762817
2023-03-26T04:23:41.673Z,9.762952
2023-03-26T04:24:41.670Z,9.762989
2023-03-26T04:25:41.679Z,9.762816
2023-03-26T04:26:41.652Z,9.762862
2023-03-26T04:27:41.676Z,9.762738
2023-03-26T04:28:41.629Z,9.762646
2023-03-26T04:29:41.617Z,9.762553
2023-03-26T04:30:41.610Z,9.762652
2023-03-26T04:31:41.622Z,9.762751
2023-03-26T04:32:41.607Z,9.762706
2023-03-26T04:33:41.570Z,9.762718
2023-03-26T04:34:41.579Z,9.762638
2023-03-26T04:35:41.759Z,9.762773
2023-03-26T04:36:41.552Z,9.763098
2023-03-26T04:37:41.544Z,9.762866
2023-03-26T04:38:41.534Z,9.762842
2023-03-26T04:39:41.522Z,9.762785
2023-03-26T04:40:41.517Z,9.762761
2023-03-26T04:41:41.490Z,9.762666
2023-03-26T04:42:41.532Z,9.762880
2023-03-26T04:43:41.480Z,9.762954
2023-03-26T04:44:41.485Z,9.762686
2023-03-26T04:45:41.482Z,9.762607
2023-03-26T04:46:41.473Z,9.762600
2023-03-26T04:47:41.464Z,9.762328
2023-03-26T04:48:41.423Z,9.762524
2023-03-26T04:49:41.424Z,9.762240
2023-03-26T04:50:41.422Z,9.762188
2023-03-26T04:51:41.396Z,9.762179
2023-03-26T04:52:43.273Z,9.762463
2023-03-26T04:53:41.374Z,9.762249
2023-03-26T04:54:41.505Z,9.762230
2023-03-26T04:55:41.357Z,9.762344
2023-03-26T04:56:41.351Z,9.762578
2023-03-26T04:57:41.344Z,9.762601
2023-03-26T04:58:41.331Z,9.762270
2023-03-26T04:59:41.315Z,9.762261
2023-03-26T05:00:41.356Z,9.761999
2023-03-26T05:01:41.342Z,9.763276
2023-03-26T05:02:41.328Z,9.762356
2023-03-26T05:03:41.456Z,9.762544
2023-03-26T05:04:41.281Z,9.762553
2023-03-26T05:05:41.264Z,9.762648
2023-03-26T05:06:41.240Z,9.762561
2023-03-26T05:07:41.240Z,9.762550
2023-03-26T05:08:41.222Z,9.762262
2023-03-26T05:09:41.220Z,9.762420
2023-03-26T05:10:41.219Z,9.762686
2023-03-26T05:11:42.046Z,9.762453
2023-03-26T05:12:41.181Z,9.762319
2023-03-26T05:13:41.184Z,9.762085
2023-03-26T05:14:41.160Z,9.762126
2023-03-26T05:15:41.156Z,9.762698
2023-03-26T05:16:41.212Z,9.762879
2023-03-26T05:17:41.190Z,9.763047
2023-03-26T05:18:41.116Z,9.763071
2023-03-26T05:19:41.117Z,9.763071
2023-03-26T05:20:41.118Z,9.763071
2023-03-26T05:21:41.094Z,9.747313
2023-03-26T05:22:41.094Z,9.718531
2023-03-26T05:23:41.079Z,9.708872
2023-03-26T05:24:41.076Z,9.708872
2023-03-26T05:25:41.059Z,9.708872
2023-03-26T05:26:41.054Z,9.708872
2023-03-26T05:27:41.043Z,9.708872
2023-03-26T05:28:41.021Z,9.708872
2023-03-26T05:29:41.022Z,9.708872
2023-03-26T05:30:41.023Z,9.708872
2023-03-26T05:31:40.996Z,9.708872
2023-03-26T05:32:41.048Z,9.708872
2023-03-26T05:33:41.064Z,9.708872
2023-03-26T05:34:40.972Z,9.708872
2023-03-26T05:35:40.970Z,9.708872
2023-03-26T05:36:40.936Z,9.708872
2023-03-26T05:37:41.928Z,9.708872
2023-03-26T05:38:40.919Z,9.708872
2023-03-26T05:39:40.920Z,9.708872
2023-03-26T05:40:40.925Z,9.708872
2023-03-26T05:41:40.900Z,9.708872
2023-03-26T05:42:40.883Z,9.708872
2023-03-26T05:43:40.871Z,9.708872
2023-03-26T05:44:40.874Z,9.708872
2023-03-26T05:45:40.934Z,9.708872
2023-03-26T05:46:40.847Z,9.708872
2023-03-26T05:47:40.864Z,9.708872
2023-03-26T05:48:40.823Z,9.708872
2023-03-26T05:49:40.817Z,9.708872
2023-03-26T05:50:40.819Z,9.763085
2023-03-26T05:51:40.793Z,9.762880
2023-03-26T05:52:40.790Z,9.763089
2023-03-26T05:53:40.779Z,9.762645
2023-03-26T05:54:40.771Z,9.762699
2023-03-26T05:55:40.792Z,9.762727
2023-03-26T05:56:40.750Z,9.762870
2023-03-26T05:57:40.736Z,9.762789
2023-03-26T05:58:40.719Z,9.762375
2023-03-26T05:59:40.727Z,9.763550
2023-03-26T06:00:40.715Z,9.763683
2023-03-26T06:01:40.697Z,9.763808
2023-03-26T06:02:40.714Z,9.763808
2023-03-26T06:03:40.735Z,9.763808
2023-03-26T06:04:40.822Z,9.763808
2023-03-26T06:05:40.670Z,9.763808
2023-03-26T06:06:40.642Z,9.763808
2023-03-26T06:07:40.640Z,9.763808
2023-03-26T06:08:40.641Z,9.763808
2023-03-26T06:09:40.630Z,9.763808
2023-03-26T06:10:40.608Z,9.763808
2023-03-26T06:11:40.608Z,9.763808
2023-03-26T06:12:40.589Z,9.763808
2023-03-26T06:13:40.573Z,9.763808
2023-03-26T06:14:40.564Z,9.763808
2023-03-26T06:15:40.579Z,9.763808
2023-03-26T06:16:40.570Z,9.763808
2023-03-26T06:17:40.621Z,9.763808
2023-03-26T06:18:40.594Z,9.763808
2023-03-26T06:19:40.518Z,9.763808
2023-03-26T06:20:40.507Z,9.763808
2023-03-26T06:21:40.516Z,9.763808
2023-03-26T06:22:40.490Z,9.763808
2023-03-26T06:23:40.475Z,9.763808
2023-03-26T06:24:40.496Z,9.763808
2023-03-26T06:25:40.455Z,9.763808
2023-03-26T06:26:40.449Z,9.763808
2023-03-26T06:27:41.440Z,9.763808
2023-03-26T06:28:40.428Z,9.763808
2023-03-26T06:29:40.410Z,9.763808
2023-03-26T06:30:40.413Z,9.763808
2023-03-26T06:31:40.451Z,9.763808
2023-03-26T06:32:40.412Z,9.763808
2023-03-26T06:33:40.377Z,9.763808
2023-03-26T06:34:40.362Z,9.763808
2023-03-26T06:35:40.366Z,9.763808
2023-03-26T06:36:40.354Z,9.763808
2023-03-26T06:37:40.335Z,9.763808
2023-03-26T06:38:40.331Z,9.763808
2023-03-26T06:39:40.320Z,9.762695
2023-03-26T06:40:40.305Z,9.762754
2023-03-26T06:41:40.312Z,9.762756
2023-03-26T06:43:08.832Z,9.763299
2023-03-26T06:43:41.277Z,9.763299
2023-03-26T06:44:40.270Z,9.763299
2023-03-26T06:45:40.249Z,9.763299
2023-03-26T06:46:40.331Z,9.763299
2023-03-26T06:47:40.247Z,9.732985
2023-03-26T06:48:40.232Z,9.262350
2023-03-26T06:49:40.213Z,9.266691
2023-03-26T06:50:40.207Z,9.271929
2023-03-26T06:51:40.206Z,9.278239
2023-03-26T06:52:40.189Z,9.285063
2023-03-26T06:53:40.170Z,9.348989
2023-03-26T06:54:40.164Z,9.359007
2023-03-26T06:55:40.164Z,9.695086
2023-03-26T06:56:40.173Z,9.695086
2023-03-26T06:57:40.140Z,9.711664
2023-03-26T06:58:40.125Z,9.714062
2023-03-26T06:59:40.118Z,9.717273
2023-03-26T07:00:40.145Z,9.718831
2023-03-26T07:01:40.167Z,9.718831
2023-03-26T07:02:40.114Z,9.718831
2023-03-26T07:03:40.101Z,9.718831
2023-03-26T07:04:40.062Z,9.718831
2023-03-26T07:05:40.057Z,9.718831
2023-03-26T07:06:40.055Z,9.718831
2023-03-26T07:07:45.837Z,9.718831
2023-03-26T07:08:41.024Z,9.718831
2023-03-26T07:09:40.010Z,9.718831
2023-03-26T07:10:40.012Z,9.718831
2023-03-26T07:11:40.004Z,9.718831
2023-03-26T07:12:39.997Z,9.718831
2023-03-26T07:13:39.987Z,9.718831
2023-03-26T07:14:39.962Z,9.718831
2023-03-26T07:15:39.960Z,9.718831
2023-03-26T07:16:39.987Z,9.718831
2023-03-26T07:17:39.971Z,9.718831
2023-03-26T07:18:39.927Z,9.718831
2023-03-26T07:19:39.913Z,9.718831
2023-03-26T07:20:39.909Z,9.718831
2023-03-26T07:21:39.910Z,9.718831
2023-03-26T07:22:39.905Z,9.718831
2023-03-26T07:23:39.871Z,9.718831
2023-03-26T07:24:39.892Z,9.718831
2023-03-26T07:25:39.864Z,9.718831
2023-03-26T07:26:39.844Z,9.718831
2023-03-26T07:27:39.858Z,9.718831
2023-03-26T07:28:39.836Z,9.718831
2023-03-26T07:29:39.816Z,9.718831
2023-03-26T07:30:39.818Z,9.718831
2023-03-26T07:31:39.855Z,9.718831
2023-03-26T07:32:39.868Z,9.718831
2023-03-26T07:33:39.784Z,9.718831
2023-03-26T07:34:39.779Z,9.718831
2023-03-26T07:35:39.826Z,9.718831
2023-03-26T07:36:39.748Z,9.718831
2023-03-26T07:37:39.755Z,9.718831
2023-03-26T07:38:39.741Z,9.718831
2023-03-26T07:39:39.722Z,9.718831
2023-03-26T07:40:39.714Z,9.718831
2023-03-26T07:41:39.700Z,9.718831
2023-03-26T07:42:39.700Z,9.718831
2023-03-26T07:43:39.688Z,9.718831
2023-03-26T07:44:39.672Z,9.718831
2023-03-26T07:45:39.708Z,9.718831
2023-03-26T07:46:39.656Z,9.718831
2023-03-26T07:47:39.644Z,9.718831
2023-03-26T07:48:39.637Z,9.718831
2023-03-26T07:49:39.613Z,9.718831
2023-03-26T07:50:39.609Z,9.718831
2023-03-26T07:51:39.597Z,9.718831
2023-03-26T07:52:39.655Z,9.718831
2023-03-26T07:53:39.588Z,9.718831
2023-03-26T07:54:39.572Z,9.718831
2023-03-26T07:55:39.565Z,9.718831
2023-03-26T07:56:39.678Z,9.718831
2023-03-26T07:57:39.605Z,9.718831
2023-03-26T07:58:39.540Z,9.718831
2023-03-26T07:59:39.559Z,9.718831
2023-03-26T08:00:39.521Z,9.718831
2023-03-26T08:01:39.511Z,9.718831
2023-03-26T08:02:39.534Z,9.718831
2023-03-26T08:03:39.611Z,9.718831
2023-03-26T08:04:39.583Z,9.718831
2023-03-26T08:05:39.473Z,9.718831
2023-03-26T08:06:39.577Z,9.718831
2023-03-26T08:07:39.458Z,9.718831
2023-03-26T08:08:39.443Z,9.718831
2023-03-26T08:09:39.421Z,9.718831
2023-03-26T08:10:39.418Z,9.718831
2023-03-26T08:11:39.401Z,9.718831
2023-03-26T08:12:39.389Z,9.718831
2023-03-26T08:13:39.405Z,9.718831
2023-03-26T08:14:39.370Z,9.718831
2023-03-26T08:15:39.386Z,9.718831
2023-03-26T08:16:39.350Z,9.718831
2023-03-26T08:17:39.411Z,9.718831
2023-03-26T08:18:39.334Z,9.718831
2023-03-26T08:19:39.325Z,9.718831
2023-03-26T08:20:39.309Z,9.718831
2023-03-26T08:21:39.300Z,9.718831
2023-03-26T08:22:39.291Z,9.718831
2023-03-26T08:23:50.501Z,9.718831
2023-03-26T08:24:40.268Z,9.718831
2023-03-26T08:25:39.310Z,9.718831
2023-03-26T08:26:39.258Z,9.718831
2023-03-26T08:27:39.234Z,9.718831
2023-03-26T08:28:39.233Z,9.718831
2023-03-26T08:29:39.245Z,9.718831
2023-03-26T08:30:39.225Z,9.718831
2023-03-26T08:31:39.275Z,9.718831
2023-03-26T08:32:39.210Z,9.718831
2023-03-26T08:33:39.213Z,9.718831
2023-03-26T08:34:39.157Z,9.718831
2023-03-26T08:35:39.220Z,9.718831
2023-03-26T08:36:39.150Z,9.718831
2023-03-26T08:37:39.141Z,9.718831
2023-03-26T08:38:39.138Z,9.718831
2023-03-26T08:39:39.113Z,9.718831
2023-03-26T08:40:39.104Z,9.718831
2023-03-26T08:41:39.089Z,9.718831
2023-03-26T08:42:39.077Z,9.718831
2023-03-26T08:43:39.084Z,9.718831
2023-03-26T08:44:39.072Z,9.718831
2023-03-26T08:45:39.057Z,9.718831
2023-03-26T08:46:39.055Z,9.718831
2023-03-26T08:47:39.059Z,9.718831
2023-03-26T08:48:39.038Z,9.718831
2023-03-26T08:49:39.018Z,9.718831
2023-03-26T08:50:39.010Z,9.718831
2023-03-26T08:51:38.997Z,9.718831
2023-03-26T08:52:38.995Z,9.718831
2023-03-26T08:53:38.988Z,9.718831
2023-03-26T08:54:38.978Z,9.718831
2023-03-26T08:55:38.963Z,9.718831
2023-03-26T08:56:39.131Z,9.718831
2023-03-26T08:57:38.938Z,9.718831
2023-03-26T08:58:38.949Z,9.718831
2023-03-26T08:59:38.915Z,9.718831
2023-03-26T09:00:38.914Z,9.718831
2023-03-26T09:01:38.975Z,9.718831
2023-03-26T09:02:38.917Z,9.718831
2023-03-26T09:03:38.905Z,9.718831
2023-03-26T09:04:38.874Z,9.718831
2023-03-26T09:05:38.860Z,9.718831
2023-03-26T09:06:38.848Z,9.718831
2023-03-26T09:07:38.886Z,9.718831
2023-03-26T09:08:38.825Z,9.718831
2023-03-26T09:09:39.827Z,9.718831
2023-03-26T09:10:38.813Z,9.718831
2023-03-26T09:11:38.796Z,9.718831
2023-03-26T09:12:38.783Z,9.718831
2023-03-26T09:13:38.775Z,9.718831
2023-03-26T09:14:38.771Z,9.718831
2023-03-26T09:15:38.758Z,9.718831
2023-03-26T09:16:38.797Z,9.718831
2023-03-26T09:17:38.769Z,9.718831
2023-03-26T09:18:38.727Z,9.718831
2023-03-26T09:19:38.720Z,9.718831
2023-03-26T09:20:38.697Z,9.718831
2023-03-26T09:21:38.705Z,9.718831
2023-03-26T09:22:38.688Z,9.718831
2023-03-26T09:23:38.677Z,9.718831
2023-03-26T09:24:38.698Z,9.718831
2023-03-26T09:25:38.646Z,9.718831
2023-03-26T09:26:39.639Z,9.718831
2023-03-26T09:27:38.633Z,9.718831
2023-03-26T09:28:38.620Z,9.718831
2023-03-26T09:29:38.624Z,9.718831
2023-03-26T09:30:38.621Z,9.718831
2023-03-26T09:31:38.663Z,9.718831
2023-03-26T09:32:38.658Z,9.718831
2023-03-26T09:33:38.581Z,9.718831
2023-03-26T09:34:38.625Z,9.718831
2023-03-26T09:35:38.596Z,9.718831
2023-03-26T09:36:38.707Z,9.718831
2023-03-26T09:37:56.229Z,9.718831
2023-03-26T09:38:39.545Z,9.718831
2023-03-26T09:39:38.557Z,9.718831
2023-03-26T09:40:38.531Z,9.718831
2023-03-26T09:41:38.511Z,9.718831
2023-03-26T09:42:38.508Z,9.718831
2023-03-26T09:43:38.484Z,9.718831
2023-03-26T09:44:38.505Z,9.718831
2023-03-26T09:45:38.513Z,9.718831
2023-03-26T09:46:38.450Z,9.718831
2023-03-26T09:47:38.478Z,9.718831
2023-03-26T09:48:38.453Z,9.718831
2023-03-26T09:49:38.436Z,9.718831
2023-03-26T09:50:38.427Z,9.718831
2023-03-26T09:51:38.428Z,9.718831
2023-03-26T09:52:38.410Z,9.718831
2023-03-26T09:53:38.411Z,9.718831
2023-03-26T09:54:38.406Z,9.718831
2023-03-26T09:55:38.381Z,9.718831
2023-03-26T09:56:39.496Z,9.718831
2023-03-26T09:57:39.371Z,9.718831
2023-03-26T09:58:38.336Z,9.718831
2023-03-26T09:59:38.348Z,9.718831
2023-03-26T10:00:38.339Z,9.718831
2023-03-26T10:01:38.410Z,9.718831
2023-03-26T10:02:46.107Z,9.718831
2023-03-26T10:03:39.268Z,9.718831
2023-03-26T10:04:38.402Z,9.718831
2023-03-26T10:05:38.256Z,9.718831
2023-03-26T10:06:38.258Z,9.718831
2023-03-26T10:07:38.254Z,9.718831
2023-03-26T10:08:38.237Z,9.718831
2023-03-26T10:09:38.231Z,9.718831
2023-03-26T10:10:38.213Z,9.718831
2023-03-26T10:11:38.200Z,9.718831
2023-03-26T10:12:38.253Z,9.718831
2023-03-26T10:13:38.185Z,9.718831
2023-03-26T10:14:38.174Z,9.718831
2023-03-26T10:15:38.160Z,9.718831
2023-03-26T10:16:38.197Z,9.718831
2023-03-26T10:17:38.200Z,9.718831
2023-03-26T10:18:38.134Z,9.718831
2023-03-26T10:19:39.053Z,9.718831
2023-03-26T10:20:38.161Z,9.718831
2023-03-26T10:21:38.154Z,9.718831
2023-03-26T10:22:38.144Z,9.718831
2023-03-26T10:23:38.129Z,9.718831
2023-03-26T10:24:38.098Z,9.718831
2023-03-26T10:25:38.098Z,9.718831
2023-03-26T10:26:38.098Z,9.718831
2023-03-26T10:27:38.155Z,9.718831
2023-03-26T10:28:38.051Z,9.718831
2023-03-26T10:29:38.069Z,9.718831
2023-03-26T10:30:38.113Z,9.718831
2023-03-26T10:31:38.033Z,9.718831
2023-03-26T10:32:38.162Z,9.718831
2023-03-26T10:33:38.012Z,9.718831
2023-03-26T10:34:37.998Z,9.718831
2023-03-26T10:35:38.070Z,9.718831
2023-03-26T10:36:37.975Z,9.718831
2023-03-26T10:37:37.984Z,9.718831
2023-03-26T10:38:37.968Z,9.718831
2023-03-26T10:39:39.434Z,9.718831
2023-03-26T10:40:38.965Z,9.718831
2023-03-26T10:41:37.912Z,9.718831
2023-03-26T10:42:37.903Z,9.718831
2023-03-26T10:43:37.894Z,9.718831
2023-03-26T10:44:37.885Z,9.718831
2023-03-26T10:45:37.927Z,9.718831
2023-03-26T10:46:37.900Z,9.718831
2023-03-26T10:47:37.933Z,9.718831
2023-03-26T10:48:37.855Z,9.718831
2023-03-26T10:49:37.897Z,9.718831
2023-03-26T10:50:37.856Z,9.718831
2023-03-26T10:51:37.857Z,9.718831
2023-03-26T10:52:37.875Z,9.718831
2023-03-26T10:53:37.835Z,9.718831
2023-03-26T10:54:37.805Z,9.718831
2023-03-26T10:55:37.810Z,9.718831
2023-03-26T10:56:37.816Z,9.718831
2023-03-26T10:57:37.782Z,9.718831
2023-03-26T10:58:48.462Z,9.718831
2023-03-26T10:59:38.762Z,9.718831
2023-03-26T11:00:37.771Z,9.718831
2023-03-26T11:01:37.787Z,9.718831
2023-03-26T11:02:37.738Z,9.718831
2023-03-26T11:03:37.714Z,9.718831
2023-03-26T11:04:37.708Z,9.718831
2023-03-26T11:05:37.737Z,9.718831
2023-03-26T11:06:37.686Z,9.718831
2023-03-26T11:07:37.672Z,9.718831
2023-03-26T11:08:37.651Z,9.718831
2023-03-26T11:09:37.657Z,9.718831
2023-03-26T11:10:37.649Z,9.718831
2023-03-26T11:11:37.621Z,9.718831
2023-03-26T11:12:37.596Z,9.718831
2023-03-26T11:13:37.597Z,9.718831
2023-03-26T11:14:37.588Z,9.718831
2023-03-26T11:15:37.634Z,9.718831
2023-03-26T11:16:37.576Z,9.718831
2023-03-26T11:17:39.302Z,9.718831
2023-03-26T11:18:37.531Z,9.718831
2023-03-26T11:19:37.535Z,9.718831
2023-03-26T11:20:37.547Z,9.718831
2023-03-26T11:21:37.563Z,9.718831
2023-03-26T11:22:37.524Z,9.718831
2023-03-26T11:23:37.504Z,9.718831
2023-03-26T11:24:37.483Z,9.718831
2023-03-26T11:25:37.507Z,9.718831
2023-03-26T11:26:38.897Z,9.718831
2023-03-26T11:27:37.484Z,9.718831
2023-03-26T11:28:37.436Z,9.718831
2023-03-26T11:29:37.445Z,9.718831
2023-03-26T11:30:37.429Z,9.718831
2023-03-26T11:31:37.472Z,9.718831
2023-03-26T11:32:37.433Z,9.718831
2023-03-26T11:33:37.403Z,9.718831
2023-03-26T11:34:38.413Z,9.718831
2023-03-26T11:35:41.211Z,9.718831
2023-03-26T11:36:37.371Z,9.718831
2023-03-26T11:37:37.331Z,9.718831
2023-03-26T11:38:37.560Z,9.718831
2023-03-26T11:39:37.325Z,9.718831
2023-03-26T11:40:37.314Z,9.718831
2023-03-26T11:41:37.328Z,9.718831
2023-03-26T11:42:37.331Z,9.718831
2023-03-26T11:43:37.296Z,9.718831
2023-03-26T11:44:37.273Z,9.718831
2023-03-26T11:45:37.330Z,9.718831
2023-03-26T11:46:37.319Z,9.718831
2023-03-26T11:47:37.313Z,9.718831
2023-03-26T11:48:37.252Z,9.718831
2023-03-26T11:49:37.225Z,9.718831
2023-03-26T11:50:37.208Z,9.718831
2023-03-26T11:51:37.227Z,9.718831
2023-03-26T11:52:37.280Z,9.718831
2023-03-26T11:53:37.222Z,9.718831
2023-03-26T11:54:37.188Z,9.718831
2023-03-26T11:55:37.200Z,9.718831
2023-03-26T11:56:37.191Z,9.718831
2023-03-26T11:57:37.176Z,9.718831
2023-03-26T11:58:37.160Z,9.718831
2023-03-26T11:59:49.034Z,9.718831
2023-03-26T12:00:39.117Z,9.718831
2023-03-26T12:01:37.167Z,9.718831
2023-03-26T12:02:37.184Z,9.718831
2023-03-26T12:03:37.140Z,9.718831
2023-03-26T12:04:37.118Z,9.718831
2023-03-26T12:05:37.067Z,9.718831
2023-03-26T12:06:37.143Z,9.718831
2023-03-26T12:07:37.020Z,9.718831
2023-03-26T12:08:37.030Z,9.718831
2023-03-26T12:09:37.011Z,9.718831
2023-03-26T12:10:37.015Z,9.718831
2023-03-26T12:11:37.023Z,9.718831
2023-03-26T12:12:38.006Z,9.718831
2023-03-26T12:13:37.002Z,9.718831
2023-03-26T12:14:36.975Z,9.718831
2023-03-26T12:15:36.951Z,9.718831
2023-03-26T12:16:36.967Z,9.718831
2023-03-26T12:17:36.914Z,9.718831
2023-03-26T12:18:36.911Z,9.718831
2023-03-26T12:19:36.905Z,9.718831
2023-03-26T12:20:36.918Z,9.718831
2023-03-26T12:21:36.907Z,9.718831
2023-03-26T12:22:36.859Z,9.718831
2023-03-26T12:23:36.860Z,9.718831
2023-03-26T12:24:36.865Z,9.718831
2023-03-26T12:25:36.853Z,9.718831
2023-03-26T12:26:36.899Z,9.718831
2023-03-26T12:27:36.803Z,9.718831
2023-03-26T12:28:36.821Z,9.718831
2023-03-26T12:29:36.797Z,9.718831
2023-03-26T12:30:36.876Z,9.718831
2023-03-26T12:31:36.846Z,9.718831
2023-03-26T12:32:45.845Z,9.718831
2023-03-26T12:33:38.751Z,9.718831
2023-03-26T12:34:36.732Z,9.718831
2023-03-26T12:35:36.831Z,9.718831
2023-03-26T12:36:36.762Z,9.718831
2023-03-26T12:37:36.748Z,9.718831
2023-03-26T12:38:36.718Z,9.718831
2023-03-26T12:40:07.471Z,9.718831
2023-03-26T12:40:37.702Z,9.718831
2023-03-26T12:43:51.654Z,9.718831
2023-03-26T12:44:50.407Z,9.718831
2023-03-26T12:44:54.325Z,9.718831
2023-03-26T12:44:54.487Z,9.718831
2023-03-26T12:45:37.664Z,9.718831
2023-03-26T12:47:56.942Z,9.718831
2023-03-26T12:47:57.773Z,9.718831
2023-03-26T12:48:37.783Z,9.718831
2023-03-26T12:49:36.674Z,9.718831
2023-03-26T12:50:36.691Z,9.718831
2023-03-26T12:51:36.583Z,9.718831
2023-03-26T12:52:36.557Z,9.718831
2023-03-26T12:53:36.561Z,9.718831
2023-03-26T12:54:37.544Z,9.718831
2023-03-26T12:55:36.590Z,9.718831
2023-03-26T12:56:36.607Z,9.718831
2023-03-26T12:57:36.592Z,9.718831
2023-03-26T12:58:36.530Z,9.718831
2023-03-26T12:59:36.533Z,9.718831
2023-03-26T13:00:36.491Z,9.718831
2023-03-26T13:01:36.489Z,9.718831
2023-03-26T13:02:36.517Z,9.718831
2023-03-26T13:03:36.472Z,9.718831
2023-03-26T13:04:36.407Z,9.718831
2023-03-26T13:05:36.442Z,9.718831
2023-03-26T13:06:59.407Z,9.718831
2023-03-26T13:07:37.482Z,9.718831
2023-03-26T13:08:36.411Z,9.718831
2023-03-26T13:09:36.417Z,9.718831
2023-03-26T13:10:36.377Z,9.718831
2023-03-26T13:11:36.329Z,9.718831
2023-03-26T13:12:36.361Z,9.718831
2023-03-26T13:13:36.366Z,9.718831
2023-03-26T13:14:36.376Z,9.718831
2023-03-26T13:15:36.332Z,9.718831
2023-03-26T13:16:36.343Z,9.718831
2023-03-26T13:17:36.355Z,9.718831
2023-03-26T13:18:36.326Z,9.718831
2023-03-26T13:19:36.305Z,9.718831
2023-03-26T13:20:36.264Z,9.718831
2023-03-26T13:21:36.295Z,9.718831
2023-03-26T13:22:36.269Z,9.718831
2023-03-26T13:23:36.242Z,9.718831
2023-03-26T13:24:36.223Z,9.718831
2023-03-26T13:25:36.212Z,9.718831
2023-03-26T13:26:36.217Z,9.718831
2023-03-26T13:27:36.197Z,9.718831
2023-03-26T13:28:36.227Z,9.718831
2023-03-26T13:29:36.177Z,9.718831
2023-03-26T13:30:36.159Z,9.718831
2023-03-26T13:31:36.166Z,9.718831
2023-03-26T13:32:36.176Z,9.718831
2023-03-26T13:33:36.188Z,9.718831
2023-03-26T13:34:36.108Z,9.718831
2023-03-26T13:35:36.158Z,9.718831
2023-03-26T13:36:36.278Z,9.718831
2023-03-26T13:37:37.088Z,9.718831
2023-03-26T13:38:36.097Z,9.718831
2023-03-26T13:39:36.095Z,9.718831
2023-03-26T13:40:36.057Z,9.718831
2023-03-26T13:41:36.039Z,9.718831
2023-03-26T13:42:36.047Z,9.718831
2023-03-26T13:43:36.038Z,9.718831
2023-03-26T13:44:36.046Z,9.718831
2023-03-26T13:45:36.058Z,9.718831
2023-03-26T13:46:36.077Z,9.718831
2023-03-26T13:47:43.147Z,9.718831
2023-03-26T16:35:04.325Z,9.762677
2023-03-26T16:36:04.418Z,9.762864
2023-03-26T16:37:04.301Z,9.762848
2023-03-26T16:38:04.286Z,9.762475
2023-03-26T16:39:04.282Z,9.762694
2023-03-26T16:40:04.283Z,9.762635
2023-03-26T16:41:04.311Z,9.762625
2023-03-26T16:42:05.591Z,9.762824
2023-03-26T16:43:04.246Z,9.762573
2023-03-26T16:44:04.267Z,9.761499
2023-03-26T16:45:04.228Z,9.761499
2023-03-26T16:46:04.292Z,9.762592
2023-03-26T16:47:04.226Z,9.762679
2023-03-26T16:48:04.236Z,9.762930
2023-03-26T16:49:04.185Z,9.762636
2023-03-26T16:50:08.775Z,9.762672
2023-03-26T16:51:05.158Z,9.763363
2023-03-26T16:52:33.660Z,9.763363
2023-03-26T16:53:04.179Z,9.763363
2023-03-26T16:54:04.173Z,9.763363
2023-03-26T16:55:04.183Z,9.763363
2023-03-26T16:56:04.161Z,9.763363
2023-03-26T16:57:04.182Z,9.763363
2023-03-26T16:58:04.121Z,9.763363
2023-03-26T16:59:04.104Z,9.763363
2023-03-26T17:00:05.804Z,9.763363
2023-03-26T17:01:04.107Z,9.763363
2023-03-26T17:02:04.134Z,9.763363
2023-03-26T17:03:04.119Z,9.763363
2023-03-26T17:04:04.049Z,9.763363
2023-03-26T17:05:04.304Z,9.763363
2023-03-26T17:06:04.039Z,9.763363
2023-03-26T17:07:04.046Z,9.763363
2023-03-26T17:08:04.049Z,9.763363
2023-03-26T17:09:03.999Z,9.763363
2023-03-26T17:10:04.040Z,9.763363
2023-03-26T17:11:04.029Z,9.763363
2023-03-26T17:12:04.022Z,9.763363
2023-03-26T17:13:04.137Z,9.763363
2023-03-26T17:14:03.982Z,9.763363
2023-03-26T17:15:03.987Z,9.763363
2023-03-26T17:16:03.990Z,9.763363
2023-03-26T17:17:03.977Z,9.763363
2023-03-26T17:18:03.994Z,9.763363
2023-03-26T17:19:03.910Z,9.763363
2023-03-26T17:20:03.913Z,9.763363
2023-03-26T17:21:03.879Z,9.763363
2023-03-26T17:22:03.931Z,9.763363
2023-03-26T17:23:03.900Z,9.763363
2023-03-26T17:24:03.882Z,9.763363
2023-03-26T17:25:03.845Z,9.763363
2023-03-26T17:26:03.872Z,9.763363
2023-03-26T17:27:03.858Z,9.763363
2023-03-26T17:28:03.816Z,9.763363
2023-03-26T17:29:03.819Z,9.763363
2023-03-26T17:30:03.884Z,9.763363
2023-03-26T17:31:03.787Z,9.763363
2023-03-26T17:32:03.797Z,9.763363
2023-03-26T17:33:03.809Z,9.763363
2023-03-26T17:34:03.804Z,9.763363
2023-03-26T17:35:03.765Z,9.763363
2023-03-26T17:36:03.813Z,9.762566
2023-03-26T17:37:03.750Z,9.762883
2023-03-26T17:38:03.752Z,9.761783
2023-03-26T17:39:03.791Z,9.762020
2023-03-26T17:40:03.752Z,9.762549
2023-03-26T17:41:03.690Z,9.762578
2023-03-26T17:42:03.733Z,9.762544
2023-03-26T17:43:03.669Z,9.762616
2023-03-26T17:44:03.650Z,9.762522
2023-03-26T17:45:03.639Z,9.762572
2023-03-26T17:46:04.734Z,9.762660
2023-03-26T17:47:03.632Z,9.762477
2023-03-26T17:48:03.726Z,9.762523
2023-03-26T17:49:03.617Z,9.762517
2023-03-26T17:50:03.589Z,9.762338
2023-03-26T17:51:03.631Z,9.762105
2023-03-26T17:52:03.648Z,9.762525
2023-03-26T17:53:03.596Z,9.762285
2023-03-26T17:54:03.580Z,9.761612
2023-03-26T17:55:03.552Z,9.762582
2023-03-26T17:56:03.596Z,9.762464
2023-03-26T17:57:03.563Z,9.762625
2023-03-26T17:58:03.568Z,9.762753
2023-03-26T17:59:12.242Z,9.763054
2023-03-26T18:00:04.522Z,9.762676
2023-03-26T18:01:03.535Z,9.762566
2023-03-26T18:02:03.616Z,9.762490
2023-03-26T18:03:03.691Z,9.762608
2023-03-26T18:04:03.447Z,9.762596
2023-03-26T18:05:03.503Z,9.763014
2023-03-26T18:06:03.471Z,9.762671
2023-03-26T18:07:03.456Z,9.762788
2023-03-26T18:08:03.481Z,9.762807
2023-03-26T18:09:04.930Z,9.762568
2023-03-26T18:10:03.462Z,9.762528
2023-03-26T18:11:04.249Z,9.762388
2023-03-26T18:12:03.380Z,9.762589
2023-03-26T18:13:03.397Z,9.762695
2023-03-26T18:14:03.390Z,9.762867